Time;durP1;ratioP1;P1;durP2;ratioP2;P2;SDS_P1;SDS_P2;PMS_P1;PMS_P2;Temp;Humidity;BMP_temperature;BMP_pressure;BME280_temperature;BME280_humidity;BME280_pressure;Samples;Min_cycle;Max_cycle;Signal;HPM_P1;HPM_P2
2023/07/19 00:02:13;;;;;;;4.97;1.65;;;21.20;90.80;;;;;;5073469;28;20067;-90
2023/07/19 00:04:38;;;;;;;4.53;1.80;;;21.20;91.00;;;;;;5073709;28;20041;-90
2023/07/19 00:07:27;;;;;;;5.47;2.00;;;21.10;91.00;;;;;;5040791;28;20048;-90
2023/07/19 00:09:59;;;;;;;6.40;1.88;;;21.10;91.20;;;;;;5073647;28;20126;-90
2023/07/19 00:12:34;;;;;;;4.03;1.90;;;21.10;91.30;;;;;;5056971;28;20028;-90
2023/07/19 00:15:00;;;;;;;4.22;2.00;;;21.10;91.40;;;;;;5057034;28;20033;-90
2023/07/19 00:17:26;;;;;;;3.05;1.48;;;21.10;91.40;;;;;;5057038;28;20051;-90
2023/07/19 00:19:51;;;;;;;5.22;1.98;;;21.10;91.40;;;;;;5057325;28;20071;-92
2023/07/19 00:22:17;;;;;;;5.07;1.95;;;21.00;91.50;;;;;;5057275;28;20423;-92
2023/07/19 00:24:42;;;;;;;2.97;1.60;;;21.00;91.50;;;;;;5074522;28;20461;-92
2023/07/19 00:27:08;;;;;;;4.95;1.70;;;21.00;91.70;;;;;;5073637;28;20443;-92
2023/07/19 00:29:34;;;;;;;5.20;2.17;;;20.90;91.80;;;;;;5074317;28;20035;-93
2023/07/19 00:31:59;;;;;;;5.93;1.98;;;20.90;92.10;;;;;;5074250;28;20032;-92
2023/07/19 00:34:25;;;;;;;5.30;1.88;;;20.90;92.20;;;;;;5057770;28;20031;-91
2023/07/19 00:36:51;;;;;;;5.55;1.83;;;20.80;92.30;;;;;;5078167;28;20036;-92
2023/07/19 00:39:16;;;;;;;4.38;1.67;;;20.80;92.40;;;;;;5079856;28;20047;-92
2023/07/19 00:41:42;;;;;;;7.70;2.15;;;20.80;92.60;;;;;;5080934;28;20035;-92
2023/07/19 00:44:07;;;;;;;5.30;1.92;;;20.80;92.70;;;;;;5081520;28;20028;-91
2023/07/19 00:46:34;;;;;;;7.78;2.13;;;20.70;92.90;;;;;;5098224;28;20009;-92
2023/07/19 00:49:01;;;;;;;6.10;1.95;;;20.70;93.00;;;;;;5098363;28;20076;-92
2023/07/19 00:51:33;;;;;;;7.32;2.40;;;20.60;93.10;;;;;;5096810;28;20040;-90
2023/07/19 00:54:07;;;;;;;4.45;2.00;;;20.60;93.20;;;;;;5056418;28;20074;-90
2023/07/19 00:56:33;;;;;;;5.18;2.15;;;20.60;93.30;;;;;;5073259;28;20050;-90
2023/07/19 00:59:00;;;;;;;6.75;2.28;;;20.50;93.40;;;;;;5090089;28;20081;-90
2023/07/19 01:01:26;;;;;;;5.78;2.10;;;20.50;93.40;;;;;;5073465;28;20025;-90
2023/07/19 01:03:52;;;;;;;3.42;1.80;;;20.40;93.50;;;;;;5056568;28;20035;-90
2023/07/19 01:06:19;;;;;;;5.63;1.65;;;20.30;93.50;;;;;;5073329;28;20112;-88
2023/07/19 01:08:48;;;;;;;10.60;1.85;;;20.30;93.60;;;;;;5074076;28;20044;-92
2023/07/19 01:11:14;;;;;;;5.07;2.00;;;20.20;93.70;;;;;;5075086;28;20052;-91
2023/07/19 01:13:51;;;;;;;5.60;2.05;;;20.20;93.80;;;;;;5077304;28;20028;-92
2023/07/19 01:16:17;;;;;;;4.32;1.88;;;20.20;93.90;;;;;;5064578;28;20150;-91
2023/07/19 01:18:42;;;;;;;5.07;1.95;;;20.10;93.90;;;;;;5064665;28;20436;-92
2023/07/19 01:21:09;;;;;;;5.78;2.10;;;20.10;94.10;;;;;;5075034;28;20064;-92
2023/07/19 01:23:35;;;;;;;4.38;2.35;;;20.00;94.10;;;;;;5056450;28;20519;-88
2023/07/19 01:26:01;;;;;;;5.68;2.38;;;20.00;94.30;;;;;;5072995;28;20099;-92
2023/07/19 01:28:33;;;;;;;4.78;2.15;;;20.00;94.40;;;;;;5056434;28;20021;-91
2023/07/19 01:31:04;;;;;;;4.88;2.25;;;19.90;94.40;;;;;;5056999;28;20032;-90
2023/07/19 01:33:30;;;;;;;5.40;2.10;;;19.90;94.60;;;;;;5073383;28;20381;-94
2023/07/19 01:35:56;;;;;;;4.25;2.20;;;19.90;94.70;;;;;;5073370;28;20123;-93
2023/07/19 01:38:21;;;;;;;6.18;2.10;;;19.90;94.80;;;;;;5073152;28;20059;-92
2023/07/19 01:40:47;;;;;;;5.75;2.10;;;19.80;94.90;;;;;;5073306;28;20037;-92
2023/07/19 01:43:13;;;;;;;5.68;2.05;;;19.80;94.90;;;;;;5072260;28;20028;-89
2023/07/19 01:45:39;;;;;;;3.50;1.90;;;19.80;94.90;;;;;;5072408;28;20059;-89
2023/07/19 01:48:05;;;;;;;5.13;2.60;;;19.80;95.00;;;;;;5072281;28;20466;-89
2023/07/19 01:50:31;;;;;;;7.20;2.25;;;19.70;95.10;;;;;;5075637;28;20487;-90
2023/07/19 01:52:58;;;;;;;4.70;1.95;;;19.80;95.20;;;;;;5076115;28;20024;-89
2023/07/19 01:55:23;;;;;;;7.70;2.15;;;19.70;95.20;;;;;;5075810;28;20086;-89
2023/07/19 01:57:49;;;;;;;4.25;2.00;;;19.70;95.30;;;;;;5058930;28;20062;-89
2023/07/19 02:00:15;;;;;;;4.85;2.10;;;19.70;95.40;;;;;;5076028;28;20028;-93
2023/07/19 02:02:41;;;;;;;5.10;2.03;;;19.70;95.50;;;;;;5059440;28;20393;-94
2023/07/19 02:05:07;;;;;;;6.40;2.20;;;19.70;95.60;;;;;;5059534;28;20021;-93
2023/07/19 02:07:33;;;;;;;5.78;2.30;;;19.60;95.70;;;;;;5059178;28;20053;-94
2023/07/19 02:09:58;;;;;;;5.30;1.95;;;19.60;95.70;;;;;;5076393;28;20082;-93
2023/07/19 02:12:24;;;;;;;7.47;2.38;;;19.60;95.80;;;;;;5092697;28;20037;-93
2023/07/19 02:14:51;;;;;;;9.30;2.50;;;19.60;96.00;;;;;;5076449;28;20059;-92
2023/07/19 02:17:17;;;;;;;5.93;2.38;;;19.60;96.00;;;;;;5075920;28;20115;-94
2023/07/19 02:19:43;;;;;;;4.97;1.95;;;19.60;96.00;;;;;;5059388;28;20048;-93
2023/07/19 02:22:09;;;;;;;6.40;2.33;;;19.60;96.10;;;;;;5076106;28;20481;-92
2023/07/19 02:24:36;;;;;;;5.05;2.20;;;19.60;96.20;;;;;;5059077;28;20029;-91
2023/07/19 02:27:02;;;;;;;6.95;3.70;;;19.60;96.30;;;;;;5075801;28;20031;-93
2023/07/19 02:29:27;;;;;;;5.93;2.50;;;19.50;96.30;;;;;;5075973;28;20025;-94
2023/07/19 02:31:59;;;;;;;6.80;3.00;;;19.50;96.30;;;;;;5075838;28;20024;-93
2023/07/19 02:34:34;;;;;;;6.18;2.50;;;19.50;96.40;;;;;;5075602;28;20039;-91
2023/07/19 02:37:00;;;;;;;8.27;2.83;;;19.40;96.40;;;;;;5058857;28;20025;-92
2023/07/19 02:39:30;;;;;;;4.85;2.92;;;19.40;96.50;;;;;;5075460;28;20031;-93
2023/07/19 02:41:57;;;;;;;7.85;3.42;;;19.40;96.50;;;;;;5075715;28;20075;-93
2023/07/19 02:44:23;;;;;;;8.57;3.42;;;19.30;96.50;;;;;;5075391;28;20017;-93
2023/07/19 02:46:48;;;;;;;7.53;3.10;;;19.30;96.60;;;;;;5058746;28;20017;-91
2023/07/19 02:49:15;;;;;;;10.48;3.90;;;19.30;96.70;;;;;;5075430;28;20037;-90
2023/07/19 02:51:40;;;;;;;6.88;3.28;;;19.30;96.80;;;;;;5058321;28;20032;-92
2023/07/19 02:54:06;;;;;;;4.97;3.40;;;19.30;96.90;;;;;;5075301;28;20174;-90
2023/07/19 02:56:32;;;;;;;8.10;3.63;;;19.30;96.90;;;;;;5058411;28;20029;-90
2023/07/19 02:58:57;;;;;;;9.73;4.13;;;19.20;97.00;;;;;;5058337;28;20028;-91
2023/07/19 03:01:23;;;;;;;11.10;4.40;;;19.20;97.10;;;;;;5074176;28;20020;-91
2023/07/19 03:03:49;;;;;;;9.55;4.35;;;19.20;97.30;;;;;;5074730;28;20477;-92
2023/07/19 03:06:14;;;;;;;8.27;4.25;;;19.20;97.40;;;;;;5058255;28;20020;-92
2023/07/19 03:08:40;;;;;;;8.27;4.20;;;19.20;97.50;;;;;;5058078;28;20052;-92
2023/07/19 03:11:08;;;;;;;13.95;4.40;;;19.20;97.50;;;;;;5058515;28;20024;-92
2023/07/19 03:13:34;;;;;;;10.68;4.53;;;19.10;97.80;;;;;;5077090;28;20033;-92
2023/07/19 03:16:00;;;;;;;8.13;4.00;;;19.10;97.60;;;;;;5078281;28;20032;-92
2023/07/19 03:18:26;;;;;;;11.02;5.03;;;19.10;97.60;;;;;;5078275;28;20090;-91
2023/07/19 03:21:20;;;;;;;8.15;4.68;;;19.10;97.70;;;;;;5077872;28;20033;-91
2023/07/19 03:23:46;;;;;;;10.90;5.13;;;19.10;98.00;;;;;;5057689;28;20374;-88
2023/07/19 03:26:11;;;;;;;11.18;4.97;;;19.10;98.00;;;;;;5057720;28;20024;-88
2023/07/19 03:28:37;;;;;;;8.15;4.93;;;19.10;98.10;;;;;;5074167;28;20388;-88
2023/07/19 03:31:03;;;;;;;10.27;4.53;;;19.10;98.10;;;;;;5057937;28;20017;-88
2023/07/19 03:33:28;;;;;;;12.25;4.70;;;19.10;98.20;;;;;;5073989;28;20063;-88
2023/07/19 03:35:54;;;;;;;8.65;4.90;;;19.00;98.30;;;;;;5079374;28;20034;-92
2023/07/19 03:38:21;;;;;;;8.65;5.47;;;19.00;98.40;;;;;;5091449;28;20025;-89
2023/07/19 03:40:47;;;;;;;11.65;5.80;;;19.00;98.40;;;;;;5057320;28;20089;-88
2023/07/19 03:43:12;;;;;;;10.02;4.95;;;19.00;98.50;;;;;;5057408;28;20135;-87
2023/07/19 03:45:40;;;;;;;10.40;5.28;;;19.00;98.50;;;;;;5074969;28;20106;-88
2023/07/19 03:48:06;;;;;;;13.15;5.35;;;19.00;98.60;;;;;;5073693;28;20031;-89
2023/07/19 03:50:32;;;;;;;10.13;4.93;;;19.00;98.70;;;;;;5074212;28;20077;-88
2023/07/19 03:52:57;;;;;;;19.67;6.07;;;19.00;98.70;;;;;;5073770;28;20029;-89
2023/07/19 03:55:23;;;;;;;9.07;5.60;;;19.00;98.80;;;;;;5057619;28;20028;-90
2023/07/19 03:57:55;;;;;;;8.93;5.18;;;19.00;98.90;;;;;;5074598;28;20032;-88
2023/07/19 04:00:21;;;;;;;10.52;5.38;;;19.00;99.00;;;;;;5057088;28;20123;-88
2023/07/19 04:02:56;;;;;;;10.80;5.35;;;19.00;99.10;;;;;;5056951;28;20029;-90
2023/07/19 04:05:25;;;;;;;9.95;5.88;;;19.00;99.10;;;;;;5057291;28;20021;-90
2023/07/19 04:08:01;;;;;;;9.55;5.85;;;19.00;99.20;;;;;;5073565;28;20048;-91
2023/07/19 04:10:26;;;;;;;9.35;6.03;;;19.00;99.40;;;;;;5057139;28;20253;-87
2023/07/19 04:12:54;;;;;;;13.02;5.68;;;18.90;99.40;;;;;;5073865;28;20028;-90
2023/07/19 04:15:19;;;;;;;8.77;5.57;;;19.00;99.50;;;;;;5057729;28;20577;-91
2023/07/19 04:17:45;;;;;;;9.25;6.18;;;19.00;99.60;;;;;;5074106;28;20059;-90
2023/07/19 04:20:11;;;;;;;9.20;5.68;;;19.00;99.70;;;;;;5073785;28;20032;-91
2023/07/19 04:22:36;;;;;;;8.50;5.50;;;19.00;99.70;;;;;;5073744;28;20037;-91
2023/07/19 04:25:03;;;;;;;7.60;5.35;;;19.00;99.80;;;;;;5057349;28;20100;-91
2023/07/19 04:27:29;;;;;;;11.63;6.25;;;19.00;99.80;;;;;;5073835;28;20061;-91
2023/07/19 04:29:55;;;;;;;10.68;6.45;;;19.00;99.90;;;;;;5073614;28;20504;-91
2023/07/19 04:32:30;;;;;;;11.23;6.55;;;19.00;99.90;;;;;;5057052;28;20074;-91
2023/07/19 04:34:55;;;;;;;13.75;6.25;;;19.00;99.90;;;;;;5056973;28;20037;-91
2023/07/19 04:37:21;;;;;;;8.85;6.63;;;19.00;99.90;;;;;;5056823;28;20025;-91
2023/07/19 04:39:47;;;;;;;11.30;5.88;;;19.00;99.90;;;;;;5073523;28;20029;-91
2023/07/19 04:42:13;;;;;;;11.18;6.30;;;19.00;99.90;;;;;;5056785;28;20031;-91
2023/07/19 04:44:38;;;;;;;9.50;6.00;;;19.00;99.90;;;;;;5057449;28;20052;-92
2023/07/19 04:47:05;;;;;;;9.40;6.40;;;19.00;99.90;;;;;;5073089;28;20088;-88
2023/07/19 04:49:31;;;;;;;10.90;5.85;;;19.00;99.90;;;;;;5089640;28;20021;-88
2023/07/19 04:51:58;;;;;;;10.35;6.30;;;19.00;99.90;;;;;;5073170;28;20078;-88
2023/07/19 04:54:24;;;;;;;7.90;5.70;;;19.00;99.90;;;;;;5089910;28;20021;-88
2023/07/19 04:56:50;;;;;;;10.13;6.35;;;19.00;99.90;;;;;;5089645;28;20029;-88
2023/07/19 04:59:16;;;;;;;11.13;6.03;;;19.00;99.90;;;;;;5072701;28;20024;-88
2023/07/19 05:01:43;;;;;;;11.55;6.40;;;19.00;99.90;;;;;;5073229;28;20385;-93
2023/07/19 05:04:08;;;;;;;10.60;6.50;;;19.00;99.90;;;;;;5056800;28;20036;-92
2023/07/19 05:06:34;;;;;;;12.05;6.35;;;19.00;99.90;;;;;;5073113;28;20028;-92
2023/07/19 05:09:00;;;;;;;8.75;5.85;;;19.00;99.90;;;;;;5074357;28;20044;-93
2023/07/19 05:11:25;;;;;;;9.35;5.25;;;19.00;99.90;;;;;;5073559;28;20070;-93
2023/07/19 05:13:52;;;;;;;10.57;5.60;;;19.10;99.90;;;;;;5056886;28;20032;-91
2023/07/19 05:16:18;;;;;;;12.88;5.90;;;19.10;99.90;;;;;;5073419;28;20449;-92
2023/07/19 05:19:12;;;;;;;11.18;6.15;;;19.10;99.90;;;;;;5073193;28;20526;-91
2023/07/19 05:21:38;;;;;;;8.73;5.45;;;19.10;99.90;;;;;;5074568;28;20024;-91
2023/07/19 05:24:04;;;;;;;11.75;6.05;;;19.10;99.90;;;;;;5074154;28;20028;-91
2023/07/19 05:26:30;;;;;;;9.00;6.00;;;19.10;99.90;;;;;;5060267;28;20431;-91
2023/07/19 05:28:56;;;;;;;11.13;5.50;;;19.10;99.90;;;;;;5076718;28;20017;-92
2023/07/19 05:31:21;;;;;;;9.32;5.95;;;19.10;99.90;;;;;;5076652;28;20029;-92
2023/07/19 05:33:47;;;;;;;11.77;5.50;;;19.10;99.90;;;;;;5093865;28;20476;-91
2023/07/19 05:36:12;;;;;;;13.43;5.50;;;19.10;99.90;;;;;;5059646;28;20481;-87
2023/07/19 05:38:38;;;;;;;10.77;5.60;;;19.10;99.90;;;;;;5059362;28;20465;-88
2023/07/19 05:41:06;;;;;;;9.45;5.65;;;19.10;99.90;;;;;;5076336;28;20500;-93
2023/07/19 05:43:33;;;;;;;9.55;6.15;;;19.20;99.90;;;;;;5076646;28;20027;-92
2023/07/19 05:46:09;;;;;;;12.50;6.10;;;19.20;99.90;;;;;;5077076;28;20024;-91
2023/07/19 05:48:35;;;;;;;8.23;5.40;;;19.20;99.90;;;;;;5060141;28;20542;-90
2023/07/19 05:51:03;;;;;;;9.25;5.70;;;19.30;99.90;;;;;;5059859;28;20111;-89
2023/07/19 05:53:28;;;;;;;12.88;6.72;;;19.20;99.90;;;;;;5098666;28;20016;-92
2023/07/19 05:55:54;;;;;;;7.85;5.63;;;19.20;99.90;;;;;;5101155;28;20039;-92
2023/07/19 05:58:21;;;;;;;11.15;6.10;;;19.30;99.90;;;;;;5101153;28;20013;-92
2023/07/19 06:00:50;;;;;;;10.18;6.00;;;19.30;99.90;;;;;;5101193;28;20012;-91
2023/07/19 06:03:16;;;;;;;10.60;6.35;;;19.30;99.90;;;;;;5100985;28;20013;-92
2023/07/19 06:05:45;;;;;;;8.85;5.95;;;19.30;99.90;;;;;;5101122;28;20020;-93
2023/07/19 06:08:12;;;;;;;12.80;5.93;;;19.30;99.90;;;;;;5098882;28;20055;-90
2023/07/19 06:10:38;;;;;;;9.82;5.57;;;19.30;99.90;;;;;;5076140;28;20111;-90
2023/07/19 06:13:05;;;;;;;12.32;6.05;;;19.30;99.90;;;;;;5075747;28;20020;-91
2023/07/19 06:15:32;;;;;;;11.45;6.07;;;19.30;99.90;;;;;;5075932;28;20041;-90
2023/07/19 06:17:58;;;;;;;10.32;6.00;;;19.30;99.90;;;;;;5061475;28;20033;-90
2023/07/19 06:20:23;;;;;;;11.48;5.57;;;19.30;99.90;;;;;;5077036;28;20035;-90
2023/07/19 06:22:49;;;;;;;11.93;5.45;;;19.30;99.90;;;;;;5059502;28;20539;-90
2023/07/19 06:25:15;;;;;;;14.20;5.38;;;19.30;99.90;;;;;;5076402;28;20024;-90
2023/07/19 06:27:42;;;;;;;14.25;6.30;;;19.30;99.90;;;;;;5077075;28;20111;-91
2023/07/19 06:30:09;;;;;;;9.50;5.28;;;19.40;99.90;;;;;;5076563;28;20070;-90
2023/07/19 06:32:36;;;;;;;10.15;5.70;;;19.40;99.90;;;;;;5059559;28;20032;-90
2023/07/19 06:35:03;;;;;;;11.32;5.72;;;19.40;99.90;;;;;;5076394;28;20020;-90
2023/07/19 06:37:29;;;;;;;11.90;5.10;;;19.50;99.90;;;;;;5076907;28;20066;-90
2023/07/19 06:39:54;;;;;;;8.85;5.15;;;19.50;99.90;;;;;;5076625;28;20424;-90
2023/07/19 06:42:20;;;;;;;12.45;6.63;;;19.60;99.90;;;;;;5075898;28;20070;-88
2023/07/19 06:44:58;;;;;;;11.30;5.95;;;19.60;99.90;;;;;;5058712;28;20032;-88
2023/07/19 06:47:28;;;;;;;10.57;5.03;;;19.70;99.90;;;;;;5092117;28;20113;-88
2023/07/19 06:49:55;;;;;;;13.75;6.60;;;19.70;99.90;;;;;;5075053;28;20021;-88
2023/07/19 06:52:20;;;;;;;16.25;5.63;;;19.70;99.90;;;;;;5058889;28;20036;-90
2023/07/19 06:54:46;;;;;;;10.65;5.88;;;19.70;99.90;;;;;;5075416;28;20021;-91
2023/07/19 06:57:12;;;;;;;9.82;5.18;;;19.80;99.90;;;;;;5058768;28;20177;-91
2023/07/19 06:59:38;;;;;;;11.43;5.35;;;19.80;99.90;;;;;;5075493;28;20032;-91
2023/07/19 07:02:03;;;;;;;9.13;4.80;;;19.80;99.90;;;;;;5075406;28;20470;-89
2023/07/19 07:04:29;;;;;;;9.20;5.35;;;19.90;99.90;;;;;;5075265;28;20030;-90
2023/07/19 07:06:55;;;;;;;11.05;5.53;;;19.90;99.90;;;;;;5075319;28;20040;-89
2023/07/19 07:09:20;;;;;;;10.77;5.20;;;19.90;99.90;;;;;;5058973;28;20071;-92
2023/07/19 07:11:46;;;;;;;9.35;5.30;;;20.00;99.90;;;;;;5059030;28;20029;-90
2023/07/19 07:14:12;;;;;;;16.75;5.43;;;20.00;99.90;;;;;;5075397;28;20024;-91
2023/07/19 07:16:38;;;;;;;10.43;4.70;;;20.00;99.90;;;;;;5059094;28;20063;-92
2023/07/19 07:19:22;;;;;;;11.02;5.43;;;20.10;99.90;;;;;;5075723;28;20029;-92
2023/07/19 07:21:47;;;;;;;10.82;5.55;;;20.10;99.90;;;;;;5076032;28;20043;-92
2023/07/19 07:24:13;;;;;;;13.18;5.88;;;20.10;99.90;;;;;;5058182;28;20025;-88
2023/07/19 07:26:38;;;;;;;9.98;5.03;;;20.10;99.90;;;;;;5074584;28;20116;-88
2023/07/19 07:29:05;;;;;;;11.23;5.63;;;20.10;99.90;;;;;;5074208;28;20032;-88
2023/07/19 07:31:32;;;;;;;13.00;5.53;;;20.20;99.90;;;;;;5076894;28;20020;-91
2023/07/19 07:33:58;;;;;;;10.25;5.00;;;20.20;99.90;;;;;;5063997;28;20381;-91
2023/07/19 07:36:24;;;;;;;10.85;5.28;;;20.20;99.90;;;;;;5075410;28;20032;-91
2023/07/19 07:38:50;;;;;;;8.82;4.50;;;20.30;99.90;;;;;;5058074;28;20485;-91
2023/07/19 07:41:16;;;;;;;9.75;4.80;;;20.30;99.90;;;;;;5058754;28;20162;-92
2023/07/19 07:43:42;;;;;;;9.02;5.13;;;20.40;99.90;;;;;;5076667;28;20028;-92
2023/07/19 07:46:07;;;;;;;11.05;4.80;;;20.40;99.90;;;;;;5093990;28;20032;-91
2023/07/19 07:48:33;;;;;;;9.50;4.25;;;20.40;99.90;;;;;;5094943;28;20023;-91
2023/07/19 07:50:59;;;;;;;12.75;5.40;;;20.50;99.90;;;;;;5078111;28;20115;-91
2023/07/19 07:53:24;;;;;;;15.25;5.18;;;20.50;99.90;;;;;;5079107;28;20777;-91
2023/07/19 07:55:50;;;;;;;9.80;4.03;;;20.60;99.90;;;;;;5079690;28;20499;-92
2023/07/19 07:58:17;;;;;;;13.60;4.43;;;20.60;99.90;;;;;;5077827;28;20087;-92
2023/07/19 08:00:43;;;;;;;9.13;4.07;;;20.70;99.90;;;;;;5089679;28;20024;-92
2023/07/19 08:03:09;;;;;;;8.98;3.63;;;20.70;99.90;;;;;;5095824;28;20028;-92
2023/07/19 08:05:35;;;;;;;6.97;3.70;;;20.80;99.80;;;;;;5103160;28;20038;-91
2023/07/19 08:08:03;;;;;;;11.27;3.60;;;20.80;99.80;;;;;;5116517;28;20024;-92
2023/07/19 08:10:29;;;;;;;11.65;3.90;;;20.90;99.80;;;;;;5099540;28;20016;-92
2023/07/19 08:12:55;;;;;;;10.40;3.65;;;20.90;99.60;;;;;;5114876;28;20034;-92
2023/07/19 08:15:23;;;;;;;8.35;3.72;;;21.00;99.50;;;;;;5085843;28;20040;-92
2023/07/19 08:17:55;;;;;;;10.68;4.10;;;21.10;99.50;;;;;;5079546;28;20016;-92
2023/07/19 08:20:20;;;;;;;10.65;4.40;;;21.10;99.50;;;;;;5095484;28;20043;-93
2023/07/19 08:22:47;;;;;;;9.20;4.00;;;21.10;99.30;;;;;;5085767;28;20032;-93
2023/07/19 08:25:16;;;;;;;8.93;3.60;;;21.20;99.10;;;;;;5100949;28;20016;-96
2023/07/19 08:27:43;;;;;;;12.38;4.90;;;21.20;99.10;;;;;;5090082;28;20035;-93
2023/07/19 08:30:15;;;;;;;8.38;3.90;;;21.20;98.70;;;;;;5081156;28;20028;-93
2023/07/19 08:32:46;;;;;;;10.85;4.55;;;21.20;98.80;;;;;;5079149;28;20077;-92
2023/07/19 08:35:14;;;;;;;5.47;3.50;;;21.20;98.80;;;;;;5079495;28;20024;-92
2023/07/19 08:37:40;;;;;;;8.38;4.03;;;21.30;98.80;;;;;;5077987;28;20031;-93
2023/07/19 08:40:07;;;;;;;10.55;4.10;;;21.30;98.50;;;;;;5086320;28;20029;-86
2023/07/19 08:42:33;;;;;;;8.88;3.60;;;21.40;98.40;;;;;;5056145;28;20021;-86
2023/07/19 08:44:59;;;;;;;10.88;3.92;;;21.40;98.50;;;;;;5072090;28;20082;-91
2023/07/19 08:47:25;;;;;;;8.25;4.13;;;21.50;98.70;;;;;;5078937;28;20024;-93
2023/07/19 08:49:51;;;;;;;9.07;3.85;;;21.60;98.60;;;;;;5081764;28;20074;-93
2023/07/19 08:52:17;;;;;;;8.80;3.35;;;21.60;98.50;;;;;;5079190;28;20027;-92
2023/07/19 08:54:44;;;;;;;8.00;3.35;;;21.70;98.60;;;;;;5075559;28;20436;-91
2023/07/19 08:57:10;;;;;;;5.63;2.70;;;21.80;98.40;;;;;;5077768;28;20419;-90
2023/07/19 08:59:36;;;;;;;6.60;2.80;;;21.80;98.30;;;;;;5079316;28;20093;-91
2023/07/19 09:02:02;;;;;;;6.75;2.80;;;21.90;98.10;;;;;;5081414;28;20044;-91
2023/07/19 09:04:36;;;;;;;8.95;3.30;;;21.90;97.70;;;;;;5098136;28;20042;-92
2023/07/19 09:07:06;;;;;;;8.05;3.42;;;21.90;97.70;;;;;;5097843;28;20500;-91
2023/07/19 09:09:32;;;;;;;7.72;3.20;;;21.90;97.40;;;;;;5081054;28;20032;-91
2023/07/19 09:11:58;;;;;;;5.97;3.13;;;21.90;97.50;;;;;;5080155;28;20115;-91
2023/07/19 09:14:37;;;;;;;9.25;3.85;;;22.00;97.70;;;;;;5087431;28;20063;-89
2023/07/19 09:17:03;;;;;;;6.93;3.80;;;22.00;98.00;;;;;;5108325;28;20024;-89
2023/07/19 09:19:29;;;;;;;8.63;3.83;;;22.10;98.00;;;;;;5108290;28;20074;-90
2023/07/19 09:22:03;;;;;;;7.88;3.40;;;22.10;98.10;;;;;;5108385;28;20470;-89
2023/07/19 09:24:29;;;;;;;10.82;4.60;;;22.20;98.10;;;;;;5089215;28;20038;-89
2023/07/19 09:26:59;;;;;;;10.20;4.25;;;22.20;98.00;;;;;;5089858;28;20024;-90
2023/07/19 09:29:30;;;;;;;;;;;22.30;97.80;;;;;;5085147;28;20031;-91
2023/07/19 09:31:57;;;;;;;6.80;3.30;;;22.30;97.50;;;;;;5081102;28;20410;-91
2023/07/19 09:34:27;;;;;;;8.18;3.40;;;22.30;97.50;;;;;;5064714;28;20290;-91
2023/07/19 09:36:53;;;;;;;5.90;2.92;;;22.40;97.30;;;;;;5102817;28;20019;-86
2023/07/19 09:39:20;;;;;;;6.07;2.67;;;22.40;97.30;;;;;;5106953;28;20114;-86
2023/07/19 09:41:46;;;;;;;4.95;2.63;;;22.50;97.20;;;;;;5079663;28;20115;-86
2023/07/19 09:44:18;;;;;;;9.27;2.78;;;22.50;97.00;;;;;;5079684;28;20504;-86
2023/07/19 09:46:45;;;;;;;8.60;3.08;;;22.50;96.80;;;;;;5080945;28;20080;-91
2023/07/19 09:49:11;;;;;;;4.85;2.47;;;22.50;96.60;;;;;;5064075;28;20058;-91
2023/07/19 09:51:42;;;;;;;6.95;2.47;;;22.50;96.60;;;;;;5080811;28;20046;-91
2023/07/19 09:54:13;;;;;;;6.07;2.83;;;22.50;96.50;;;;;;5097619;28;20534;-90
2023/07/19 09:56:40;;;;;;;10.02;3.53;;;22.60;96.50;;;;;;5097519;28;20028;-91
2023/07/19 09:59:12;;;;;;;7.30;2.85;;;22.60;96.20;;;;;;5080963;28;20527;-91
2023/07/19 10:01:39;;;;;;;8.65;2.78;;;22.50;96.00;;;;;;5096961;28;20023;-86
2023/07/19 10:04:22;;;;;;;6.20;2.45;;;22.50;96.00;;;;;;5096543;28;20028;-86
2023/07/19 10:06:48;;;;;;;6.43;2.22;;;22.60;96.50;;;;;;5095677;28;20027;-87
2023/07/19 10:09:23;;;;;;;4.32;2.10;;;22.60;96.40;;;;;;5095543;28;20044;-86
2023/07/19 10:11:52;;;;;;;5.85;2.65;;;22.70;95.60;;;;;;5095385;28;20081;-91
2023/07/19 10:14:27;;;;;;;8.38;2.97;;;22.70;95.30;;;;;;5096772;28;20119;-89
2023/07/19 10:16:58;;;;;;;7.07;2.67;;;22.70;95.40;;;;;;5079988;28;20056;-90
2023/07/19 10:19:24;;;;;;;5.60;2.58;;;22.80;94.90;;;;;;5079890;28;20074;-91
2023/07/19 10:22:06;;;;;;;5.20;2.25;;;22.80;94.90;;;;;;5080119;28;20028;-89
2023/07/19 10:24:34;;;;;;;8.60;2.38;;;22.90;95.10;;;;;;5096158;28;20036;-86
2023/07/19 10:27:01;;;;;;;7.43;2.50;;;22.90;95.20;;;;;;5094892;28;20368;-86
2023/07/19 10:29:40;;;;;;;6.78;2.40;;;23.00;95.40;;;;;;5096234;28;20485;-87
2023/07/19 10:32:07;;;;;;;8.27;2.88;;;23.00;95.00;;;;;;5095886;28;20061;-90
2023/07/19 10:34:33;;;;;;;5.07;2.45;;;23.10;94.70;;;;;;5096137;28;20541;-91
2023/07/19 10:37:04;;;;;;;6.80;2.30;;;23.10;94.70;;;;;;5078541;28;20024;-87
2023/07/19 10:39:31;;;;;;;6.18;2.33;;;23.10;95.00;;;;;;5095885;28;20032;-90
2023/07/19 10:41:57;;;;;;;7.85;2.45;;;23.20;95.00;;;;;;5079268;28;20038;-91
2023/07/19 10:44:26;;;;;;;8.82;2.72;;;23.30;95.10;;;;;;5083114;28;20030;-91
2023/07/19 10:46:58;;;;;;;8.50;2.90;;;23.30;95.10;;;;;;5103220;28;20012;-90
2023/07/19 10:49:33;;;;;;;6.60;2.70;;;23.40;95.00;;;;;;5104310;28;20001;-90
2023/07/19 10:52:02;;;;;;;8.50;2.30;;;23.40;95.00;;;;;;5095940;28;20028;-86
2023/07/19 10:54:28;;;;;;;4.57;2.33;;;23.40;95.10;;;;;;5094871;28;20032;-86
2023/07/19 10:56:57;;;;;;;4.15;2.33;;;23.50;95.30;;;;;;5073182;28;20498;-86
2023/07/19 10:59:22;;;;;;;4.82;2.15;;;23.50;95.50;;;;;;5076355;28;20024;-86
2023/07/19 11:01:48;;;;;;;6.90;2.25;;;23.50;95.70;;;;;;5074250;28;20024;-86
2023/07/19 11:04:15;;;;;;;7.82;2.53;;;23.50;95.80;;;;;;5069779;28;20083;-86
2023/07/19 11:06:54;;;;;;;5.75;2.70;;;23.50;96.00;;;;;;5057572;28;20031;-86
2023/07/19 11:09:22;;;;;;;6.72;2.65;;;23.60;96.20;;;;;;5088435;28;20088;-89
2023/07/19 11:11:49;;;;;;;4.97;2.90;;;23.60;96.20;;;;;;5098257;28;20013;-90
2023/07/19 11:14:34;;;;;;;9.68;2.90;;;23.60;96.20;;;;;;5082211;28;20052;-91
2023/07/19 11:17:00;;;;;;;7.95;3.13;;;23.60;96.30;;;;;;5098747;28;20035;-91
2023/07/19 11:19:40;;;;;;;7.03;2.85;;;23.60;96.10;;;;;;5084740;28;20028;-91
2023/07/19 11:22:07;;;;;;;8.25;3.03;;;23.60;96.20;;;;;;5117021;28;20098;-90
2023/07/19 11:24:40;;;;;;;9.18;3.45;;;23.60;96.20;;;;;;5084706;28;20126;-91
2023/07/19 11:27:12;;;;;;;5.70;2.85;;;23.60;95.70;;;;;;5078451;28;20051;-91
2023/07/19 11:29:38;;;;;;;6.78;3.20;;;23.60;95.50;;;;;;5078555;28;20039;-91
2023/07/19 11:32:20;;;;;;;8.73;2.97;;;23.60;95.50;;;;;;5076289;28;20384;-91
2023/07/19 11:34:53;;;;;;;7.88;2.83;;;23.50;95.60;;;;;;5095222;28;20017;-91
2023/07/19 11:37:27;;;;;;;7.25;2.83;;;23.60;95.70;;;;;;5095501;28;20015;-91
2023/07/19 11:39:54;;;;;;;6.50;2.40;;;23.60;95.60;;;;;;5094974;28;20088;-89
2023/07/19 11:42:43;;;;;;;7.32;3.20;;;23.70;95.60;;;;;;5080045;28;20048;-90
2023/07/19 11:45:24;;;;;;;7.47;3.00;;;23.70;94.60;;;;;;5085475;28;20028;-90
2023/07/19 11:47:55;;;;;;;8.20;3.45;;;23.70;94.20;;;;;;5080549;28;20111;-90
2023/07/19 11:50:23;;;;;;;10.13;3.20;;;23.70;94.30;;;;;;5091904;28;20028;-90
2023/07/19 11:53:01;;;;;;;7.72;2.85;;;23.70;94.30;;;;;;5095556;28;20091;-90
2023/07/19 11:55:29;;;;;;;8.57;3.45;;;23.70;94.90;;;;;;5078457;28;20037;-91
2023/07/19 11:58:02;;;;;;;6.40;3.65;;;23.70;95.70;;;;;;5095278;28;20155;-90
2023/07/19 12:00:29;;;;;;;7.07;3.33;;;23.70;96.30;;;;;;5079379;28;20035;-89
2023/07/19 12:02:56;;;;;;;6.95;3.28;;;23.70;96.90;;;;;;5079253;28;20077;-92
2023/07/19 12:05:26;;;;;;;9.90;3.45;;;23.70;97.40;;;;;;5079594;28;20044;-91
2023/07/19 12:07:52;;;;;;;7.15;3.00;;;23.70;97.60;;;;;;5064021;28;20043;-90
2023/07/19 12:10:20;;;;;;;7.00;2.47;;;23.70;97.50;;;;;;5078148;28;20020;-90
2023/07/19 12:12:49;;;;;;;5.35;2.80;;;23.80;97.50;;;;;;5095212;28;20073;-90
2023/07/19 12:15:17;;;;;;;7.82;3.10;;;23.80;97.40;;;;;;5079023;28;20038;-90
2023/07/19 12:17:43;;;;;;;6.43;2.92;;;23.80;97.40;;;;;;5094682;28;20024;-90
2023/07/19 12:20:10;;;;;;;5.22;2.72;;;23.80;97.50;;;;;;5094401;28;20039;-90
2023/07/19 12:22:47;;;;;;;6.70;2.75;;;23.70;97.60;;;;;;5077275;28;20020;-90
2023/07/19 12:25:13;;;;;;;7.70;2.97;;;23.70;97.60;;;;;;5077263;28;20024;-90
2023/07/19 12:27:40;;;;;;;7.15;2.47;;;23.60;98.00;;;;;;5077953;28;20031;-92
2023/07/19 12:30:06;;;;;;;10.90;3.10;;;23.60;98.20;;;;;;5064645;28;20094;-90
2023/07/19 12:32:32;;;;;;;8.82;3.05;;;23.50;98.30;;;;;;5074474;28;20087;-89
2023/07/19 12:34:58;;;;;;;5.65;2.47;;;23.50;98.40;;;;;;5101184;28;20062;-90
2023/07/19 12:37:24;;;;;;;5.35;2.83;;;23.50;98.30;;;;;;5101837;28;20023;-89
2023/07/19 12:39:52;;;;;;;8.52;3.17;;;23.50;98.30;;;;;;5101911;28;20015;-90
2023/07/19 12:42:18;;;;;;;7.13;3.03;;;23.50;98.20;;;;;;5118525;28;20027;-90
2023/07/19 12:44:49;;;;;;;5.32;2.33;;;23.50;98.00;;;;;;5085106;28;20024;-90
2023/07/19 12:47:15;;;;;;;5.97;2.80;;;23.50;98.10;;;;;;5085023;28;20043;-90